Station Historical Data
Daily Summary for March 1, 2017 Units:  Both    English   Metric
« Previous Day
Next Day »
Daily Weekly Monthly Yearly Custom
  High: Low: Average:
Temperature: 60.2 °F /  15.7 °C 36.2 °F /  2.3 °C 52.5 °F /  11.4 °C
Dew Point: 53.7 °F /  12.1 °C 28.7 °F /  -1.8 °C 46.3 °F /  7.9 °C
Humidity: 93% 69% 80%
Wind Speed: 22.0mph /  35.4km/h - 9.2mph /  14.8km/h
Wind Gust: 38.0mph /  61.2km/h - -
Wind- - SW
Pressure: 29.72 in /  1006.3 hPa 29.29 in /  991.8 hPa -
Precipitation: 0.00 in /  0 mm    
Historical Graphs
 
 
Tabular Data for March 1, 2017
Time Temperature Dew Point Pressure Wind Wind Speed Wind Gust Humidity Rainfall Rate (Hourly)
00:04 57.7 °F /  14.3 °C 50.2 °F /  10.1 °C 29.72in /  1006.3hPa SW 5.0mph /  8km/h 11.0mph /  17.7km/h 76% 0.00in /  0mm
00:09 57.6 °F /  14.2 °C 50.1 °F /  10.1 °C 29.71in /  1006hPa SSW 10.0mph /  16.1km/h 15.0mph /  24.1km/h 76% 0.00in /  0mm
00:14 57.6 °F /  14.2 °C 50.1 °F /  10.1 °C 29.70in /  1005.6hPa South 9.0mph /  14.5km/h 15.0mph /  24.1km/h 76% 0.00in /  0mm
00:19 57.7 °F /  14.3 °C 50.2 °F /  10.1 °C 29.69in /  1005.3hPa West 8.0mph /  12.9km/h 15.0mph /  24.1km/h 76% 0.00in /  0mm
00:24 57.6 °F /  14.2 °C 50.1 °F /  10.1 °C 29.69in /  1005.3hPa South 4.0mph /  6.4km/h 16.0mph /  25.7km/h 76% 0.00in /  0mm
00:29 57.4 °F /  14.1 °C 49.9 °F /  9.9 °C 29.69in /  1005.3hPa SW 6.0mph /  9.7km/h 10.0mph /  16.1km/h 76% 0.00in /  0mm
00:34 57.4 °F /  14.1 °C 50.2 °F /  10.1 °C 29.68in /  1005hPa South 5.0mph /  8km/h 13.0mph /  20.9km/h 77% 0.00in /  0mm
00:39 57.5 °F /  14.2 °C 50.3 °F /  10.2 °C 29.69in /  1005.3hPa SSW 7.0mph /  11.3km/h 17.0mph /  27.4km/h 77% 0.00in /  0mm
00:44 57.6 °F /  14.2 °C 50.4 °F /  10.2 °C 29.69in /  1005.3hPa SSW 7.0mph /  11.3km/h 19.0mph /  30.6km/h 77% 0.00in /  0mm
00:49 57.8 °F /  14.3 °C 50.6 °F /  10.3 °C 29.69in /  1005.3hPa SSW 8.0mph /  12.9km/h 22.0mph /  35.4km/h 77% 0.00in /  0mm
00:54 57.8 °F /  14.3 °C 50.6 °F /  10.3 °C 29.68in /  1005hPa SSW 8.0mph /  12.9km/h 22.0mph /  35.4km/h 77% 0.00in /  0mm
00:59 57.8 °F /  14.3 °C 50.6 °F /  10.3 °C 29.67in /  1004.6hPa SSW 7.0mph /  11.3km/h 14.0mph /  22.5km/h 77% 0.00in /  0mm
01:04 57.8 °F /  14.3 °C 50.6 °F /  10.3 °C 29.67in /  1004.6hPa SSW 7.0mph /  11.3km/h 13.0mph /  20.9km/h 77% 0.00in /  0mm
01:09 57.9 °F /  14.4 °C 50.7 °F /  10.4 °C 29.67in /  1004.6hPa SSW 7.0mph /  11.3km/h 17.0mph /  27.4km/h 77% 0.00in /  0mm
01:14 57.7 °F /  14.3 °C 50.9 °F /  10.5 °C 29.66in /  1004.3hPa SSW 7.0mph /  11.3km/h 17.0mph /  27.4km/h 78% 0.00in /  0mm
01:19 57.6 °F /  14.2 °C 51.1 °F /  10.6 °C 29.66in /  1004.3hPa South 5.0mph /  8km/h 10.0mph /  16.1km/h 79% 0.00in /  0mm
01:24 57.5 °F /  14.2 °C 51.0 °F /  10.6 °C 29.65in /  1003.9hPa SW 10.0mph /  16.1km/h 16.0mph /  25.7km/h 79% 0.00in /  0mm
01:29 57.4 °F /  14.1 °C 50.9 °F /  10.5 °C 29.65in /  1003.9hPa SSW 7.0mph /  11.3km/h 16.0mph /  25.7km/h 79% 0.00in /  0mm
01:34 57.5 °F /  14.2 °C 51.0 °F /  10.6 °C 29.65in /  1003.9hPa SSW 9.0mph /  14.5km/h 15.0mph /  24.1km/h 79% 0.00in /  0mm
01:39 57.5 °F /  14.2 °C 51.0 °F /  10.6 °C 29.64in /  1003.6hPa SSW 5.0mph /  8km/h 12.0mph /  19.3km/h 79% 0.00in /  0mm
01:44 57.6 °F /  14.2 °C 51.1 °F /  10.6 °C 29.64in /  1003.6hPa SSW 2.0mph /  3.2km/h 12.0mph /  19.3km/h 79% 0.00in /  0mm
01:49 57.7 °F /  14.3 °C 51.2 °F /  10.7 °C 29.63in /  1003.3hPa South 6.0mph /  9.7km/h 12.0mph /  19.3km/h 79% 0.00in /  0mm
01:54 57.7 °F /  14.3 °C 51.2 °F /  10.7 °C 29.62in /  1002.9hPa South 7.0mph /  11.3km/h 15.0mph /  24.1km/h 79% 0.00in /  0mm
01:59 57.6 °F /  14.2 °C 51.1 °F /  10.6 °C 29.62in /  1002.9hPa South 7.0mph /  11.3km/h 15.0mph /  24.1km/h 79% 0.00in /  0mm
02:04 57.4 °F /  14.1 °C 51.3 °F /  10.7 °C 29.61in /  1002.6hPa South 5.0mph /  8km/h 10.0mph /  16.1km/h 80% 0.00in /  0mm
02:09 57.2 °F /  14 °C 51.4 °F /  10.8 °C 29.60in /  1002.3hPa South 5.0mph /  8km/h 12.0mph /  19.3km/h 81% 0.00in /  0mm
02:14 57.3 °F /  14.1 °C 51.5 °F /  10.8 °C 29.60in /  1002.3hPa South 11.0mph /  17.7km/h 13.0mph /  20.9km/h 81% 0.00in /  0mm
02:19 57.6 °F /  14.2 °C 51.8 °F /  11 °C 29.60in /  1002.3hPa South 5.0mph /  8km/h 16.0mph /  25.7km/h 81% 0.00in /  0mm
02:24 57.6 °F /  14.2 °C 52.1 °F /  11.2 °C 29.59in /  1001.9hPa South 13.0mph /  20.9km/h 13.0mph /  20.9km/h 82% 0.03in /  0.76mm
02:29 57.7 °F /  14.3 °C 52.6 °F /  11.4 °C 29.59in /  1001.9hPa South 8.0mph /  12.9km/h 20.0mph /  32.2km/h 83% 0.06in /  1.52mm
02:34 57.4 °F /  14.1 °C 52.6 °F /  11.4 °C 29.58in /  1001.6hPa South 12.0mph /  19.3km/h 13.0mph /  20.9km/h 84% 0.08in /  2.03mm
02:39 57.4 °F /  14.1 °C 52.6 °F /  11.4 °C 29.58in /  1001.6hPa SW 6.0mph /  9.7km/h 14.0mph /  22.5km/h 84% 0.08in /  2.03mm
02:44 57.4 °F /  14.1 °C 52.6 °F /  11.4 °C 29.57in /  1001.2hPa SW 12.0mph /  19.3km/h 15.0mph /  24.1km/h 84% 0.08in /  2.03mm
02:49 57.4 °F /  14.1 °C 52.6 °F /  11.4 °C 29.57in /  1001.2hPa SW 4.0mph /  6.4km/h 14.0mph /  22.5km/h 84% 0.08in /  2.03mm
02:54 57.3 °F /  14.1 °C 52.5 °F /  11.4 °C 29.57in /  1001.2hPa SSW 6.0mph /  9.7km/h 14.0mph /  22.5km/h 84% 0.08in /  2.03mm
02:59 57.4 °F /  14.1 °C 52.6 °F /  11.4 °C 29.56in /  1000.9hPa SSW 6.0mph /  9.7km/h 13.0mph /  20.9km/h 84% 0.08in /  2.03mm
03:04 57.6 °F /  14.2 °C 52.8 °F /  11.6 °C 29.56in /  1000.9hPa SSW 7.0mph /  11.3km/h 15.0mph /  24.1km/h 84% 0.08in /  2.03mm
03:09 57.7 °F /  14.3 °C 52.6 °F /  11.4 °C 29.56in /  1000.9hPa SSW 7.0mph /  11.3km/h 15.0mph /  24.1km/h 83% 0.09in /  2.29mm
03:14 57.6 °F /  14.2 °C 52.8 °F /  11.6 °C 29.56in /  1000.9hPa South 6.0mph /  9.7km/h 17.0mph /  27.4km/h 84% 0.13in /  3.3mm
03:19 57.4 °F /  14.1 °C 52.9 °F /  11.6 °C 29.55in /  1000.6hPa SW 4.0mph /  6.4km/h 14.0mph /  22.5km/h 85% 0.14in /  3.56mm
03:24 57.2 °F /  14 °C 53.0 °F /  11.7 °C 29.55in /  1000.6hPa SSW 6.0mph /  9.7km/h 14.0mph /  22.5km/h 86% 0.12in /  3.05mm
03:29 57.1 °F /  13.9 °C 53.0 °F /  11.7 °C 29.54in /  1000.2hPa SSW 6.0mph /  9.7km/h 15.0mph /  24.1km/h 86% 0.11in /  2.79mm
03:34 57.2 °F /  14 °C 53.0 °F /  11.7 °C 29.53in /  999.9hPa SSW 10.0mph /  16.1km/h 15.0mph /  24.1km/h 86% 0.09in /  2.29mm
03:39 57.1 °F /  13.9 °C 53.3 °F /  11.8 °C 29.53in /  999.9hPa SSW 6.0mph /  9.7km/h 14.0mph /  22.5km/h 87% 0.10in /  2.54mm
03:44 57.0 °F /  13.9 °C 53.2 °F /  11.8 °C 29.52in /  999.5hPa South 7.0mph /  11.3km/h 12.0mph /  19.3km/h 87% 0.10in /  2.54mm
03:49 57.0 °F /  13.9 °C 53.2 °F /  11.8 °C 29.52in /  999.5hPa South 3.0mph /  4.8km/h 16.0mph /  25.7km/h 87% 0.11in /  2.79mm
03:54 57.0 °F /  13.9 °C 53.2 °F /  11.8 °C 29.51in /  999.2hPa SW 5.0mph /  8km/h 14.0mph /  22.5km/h 87% 0.11in /  2.79mm
03:59 57.2 °F /  14 °C 53.4 °F /  11.9 °C 29.51in /  999.2hPa South 6.0mph /  9.7km/h 14.0mph /  22.5km/h 87% 0.11in /  2.79mm
04:04 57.3 °F /  14.1 °C 53.5 °F /  11.9 °C 29.50in /  998.9hPa SSW 7.0mph /  11.3km/h 14.0mph /  22.5km/h 87% 0.11in /  2.79mm
04:09 57.5 °F /  14.2 °C 53.3 °F /  11.8 °C 29.49in /  998.5hPa South 7.0mph /  11.3km/h 15.0mph /  24.1km/h 86% 0.10in /  2.54mm
04:14 57.7 °F /  14.3 °C 53.5 °F /  11.9 °C 29.49in /  998.5hPa SSW 7.0mph /  11.3km/h 14.0mph /  22.5km/h 86% 0.06in /  1.52mm
04:19 57.8 °F /  14.3 °C 53.6 °F /  12 °C 29.49in /  998.5hPa South 7.0mph /  11.3km/h 15.0mph /  24.1km/h 86% 0.05in /  1.27mm
04:24 58.0 °F /  14.4 °C 53.5 °F /  11.9 °C 29.49in /  998.5hPa SSW 7.0mph /  11.3km/h 15.0mph /  24.1km/h 85% 0.04in /  1.02mm
04:29 58.2 °F /  14.6 °C 53.7 °F /  12.1 °C 29.48in /  998.2hPa SSE 7.0mph /  11.3km/h 13.0mph /  20.9km/h 85% 0.02in /  0.51mm
04:34 58.4 °F /  14.7 °C 53.6 °F /  12 °C 29.47in /  997.9hPa SSW 6.0mph /  9.7km/h 15.0mph /  24.1km/h 84% 0.02in /  0.51mm
04:39 58.7 °F /  14.8 °C 53.5 °F /  11.9 °C 29.47in /  997.9hPa SSW 6.0mph /  9.7km/h 18.0mph /  29km/h 83% 0.01in /  0.25mm
04:44 59.2 °F /  15.1 °C 53.7 °F /  12.1 °C 29.47in /  997.9hPa SW 5.0mph /  8km/h 16.0mph /  25.7km/h 82% 0.01in /  0.25mm
04:49 59.5 °F /  15.3 °C 53.3 °F /  11.8 °C 29.47in /  997.9hPa SW 6.0mph /  9.7km/h 13.0mph /  20.9km/h 80% 0.00in /  0mm
04:54 59.9 °F /  15.5 °C 53.4 °F /  11.9 °C 29.47in /  997.9hPa SW 5.0mph /  8km/h 12.0mph /  19.3km/h 79% 0.00in /  0mm
04:59 59.9 °F /  15.5 °C 53.4 °F /  11.9 °C 29.47in /  997.9hPa South 7.0mph /  11.3km/h 13.0mph /  20.9km/h 79% 0.00in /  0mm
05:04 60.0 °F /  15.6 °C 53.5 °F /  11.9 °C 29.46in /  997.5hPa SW 3.0mph /  4.8km/h 12.0mph /  19.3km/h 79% 0.00in /  0mm
05:09 60.2 °F /  15.7 °C 53.7 °F /  12.1 °C 29.46in /  997.5hPa SSW 6.0mph /  9.7km/h 14.0mph /  22.5km/h 79% 0.00in /  0mm
05:14 60.0 °F /  15.6 °C 53.5 °F /  11.9 °C 29.46in /  997.5hPa SSW 6.0mph /  9.7km/h 14.0mph /  22.5km/h 79% 0.00in /  0mm
05:19 60.0 °F /  15.6 °C 53.5 °F /  11.9 °C 29.47in /  997.9hPa SSW 5.0mph /  8km/h 13.0mph /  20.9km/h 79% 0.00in /  0mm
05:24 60.1 °F /  15.6 °C 53.6 °F /  12 °C 29.46in /  997.5hPa SSW 6.0mph /  9.7km/h 14.0mph /  22.5km/h 79% 0.00in /  0mm
05:29 60.0 °F /  15.6 °C 53.5 °F /  11.9 °C 29.46in /  997.5hPa SSW 6.0mph /  9.7km/h 14.0mph /  22.5km/h 79% 0.00in /  0mm
05:34 60.0 °F /  15.6 °C 53.5 °F /  11.9 °C 29.46in /  997.5hPa SSW 6.0mph /  9.7km/h 14.0mph /  22.5km/h 79% 0.00in /  0mm
05:39 59.9 °F /  15.5 °C 53.4 °F /  11.9 °C 29.46in /  997.5hPa SW 3.0mph /  4.8km/h 13.0mph /  20.9km/h 79% 0.00in /  0mm
05:44 59.7 °F /  15.4 °C 53.2 °F /  11.8 °C 29.46in /  997.5hPa SW 3.0mph /  4.8km/h 10.0mph /  16.1km/h 79% 0.00in /  0mm
05:49 59.6 °F /  15.3 °C 53.1 °F /  11.7 °C 29.46in /  997.5hPa SW 4.0mph /  6.4km/h 7.0mph /  11.3km/h 79% 0.00in /  0mm
05:54 59.6 °F /  15.3 °C 53.4 °F /  11.9 °C 29.46in /  997.5hPa WSW 6.0mph /  9.7km/h 9.0mph /  14.5km/h 80% 0.00in /  0mm
05:59 59.6 °F /  15.3 °C 53.4 °F /  11.9 °C 29.46in /  997.5hPa SW 5.0mph /  8km/h 9.0mph /  14.5km/h 80% 0.00in /  0mm
06:04 59.5 °F /  15.3 °C 53.3 °F /  11.8 °C 29.45in /  997.2hPa SSW 2.0mph /  3.2km/h 9.0mph /  14.5km/h 80% 0.00in /  0mm
06:09 59.5 °F /  15.3 °C 53.3 °F /  11.8 °C 29.45in /  997.2hPa West 5.0mph /  8km/h 11.0mph /  17.7km/h 80% 0.00in /  0mm
06:14 58.8 °F /  14.9 °C 52.3 °F /  11.3 °C 29.45in /  997.2hPa WSW 4.0mph /  6.4km/h 11.0mph /  17.7km/h 79% 0.00in /  0mm
06:19 57.5 °F /  14.2 °C 51.0 °F /  10.6 °C 29.45in /  997.2hPa West 3.0mph /  4.8km/h 7.0mph /  11.3km/h 79% 0.00in /  0mm
06:24 56.6 °F /  13.7 °C 50.5 °F /  10.3 °C 29.45in /  997.2hPa West 3.0mph /  4.8km/h 7.0mph /  11.3km/h 80% 0.00in /  0mm
06:29 55.4 °F /  13 °C 49.3 °F /  9.6 °C 29.45in /  997.2hPa West 4.0mph /  6.4km/h 7.0mph /  11.3km/h 80% 0.00in /  0mm
06:34 54.7 °F /  12.6 °C 49.0 °F /  9.4 °C 29.45in /  997.2hPa West 4.0mph /  6.4km/h 7.0mph /  11.3km/h 81% 0.00in /  0mm
06:44 54.0 °F /  12.2 °C 49.0 °F /  9.4 °C 29.45in /  997.2hPa WSW 4.0mph /  6.4km/h 6.0mph /  9.7km/h 83% 0.00in /  0mm
06:49 53.9 °F /  12.2 °C 48.9 °F /  9.4 °C 29.45in /  997.2hPa WSW 3.0mph /  4.8km/h 6.0mph /  9.7km/h 83% 0.00in /  0mm
06:54 53.7 °F /  12.1 °C 49.0 °F /  9.4 °C 29.45in /  997.2hPa WSW 2.0mph /  3.2km/h 4.0mph /  6.4km/h 84% 0.00in /  0mm
06:59 53.7 °F /  12.1 °C 49.0 °F /  9.4 °C 29.45in /  997.2hPa West 1.0mph /  1.6km/h 4.0mph /  6.4km/h 84% 0.00in /  0mm
07:04 53.6 °F /  12 °C 48.9 °F /  9.4 °C 29.45in /  997.2hPa WSW 3.0mph /  4.8km/h 4.0mph /  6.4km/h 84% 0.00in /  0mm
07:09 53.5 °F /  11.9 °C 48.8 °F /  9.3 °C 29.44in /  996.8hPa WSW 1.0mph /  1.6km/h 4.0mph /  6.4km/h 84% 0.00in /  0mm
07:14 53.4 °F /  11.9 °C 49.0 °F /  9.4 °C 29.44in /  996.8hPa WSW 4.0mph /  6.4km/h 4.0mph /  6.4km/h 85% 0.00in /  0mm
07:19 53.2 °F /  11.8 °C 48.8 °F /  9.3 °C 29.44in /  996.8hPa WSW 2.0mph /  3.2km/h 6.0mph /  9.7km/h 85% 0.00in /  0mm
07:24 53.2 °F /  11.8 °C 48.8 °F /  9.3 °C 29.43in /  996.5hPa SW 3.0mph /  4.8km/h 8.0mph /  12.9km/h 85% 0.01in /  0.25mm
07:29 53.2 °F /  11.8 °C 49.1 °F /  9.5 °C 29.43in /  996.5hPa SW 4.0mph /  6.4km/h 8.0mph /  12.9km/h 86% 0.01in /  0.25mm
07:34 53.0 °F /  11.7 °C 48.9 °F /  9.4 °C 29.45in /  997.2hPa SW 3.0mph /  4.8km/h 8.0mph /  12.9km/h 86% 0.02in /  0.51mm
07:39 52.6 °F /  11.4 °C 48.5 °F /  9.2 °C 29.47in /  997.9hPa WSW 7.0mph /  11.3km/h 19.0mph /  30.6km/h 86% 0.05in /  1.27mm
07:44 51.8 °F /  11 °C 48.1 °F /  8.9 °C 29.47in /  997.9hPa WSW 5.0mph /  8km/h 14.0mph /  22.5km/h 87% 0.09in /  2.29mm
07:49 51.5 °F /  10.8 °C 48.1 °F /  8.9 °C 29.47in /  997.9hPa WSW 4.0mph /  6.4km/h 8.0mph /  12.9km/h 88% 0.12in /  3.05mm
07:54 51.4 °F /  10.8 °C 48.3 °F /  9.1 °C 29.47in /  997.9hPa WSW 5.0mph /  8km/h 9.0mph /  14.5km/h 89% 0.13in /  3.3mm
07:59 51.1 °F /  10.6 °C 48.0 °F /  8.9 °C 29.46in /  997.5hPa SW 2.0mph /  3.2km/h 5.0mph /  8km/h 89% 0.14in /  3.56mm
08:04 50.7 °F /  10.4 °C 47.6 °F /  8.7 °C 29.46in /  997.5hPa South 7.0mph /  11.3km/h 10.0mph /  16.1km/h 89% 0.14in /  3.56mm
08:09 49.4 °F /  9.7 °C 46.3 °F /  7.9 °C 29.45in /  997.2hPa SSE 5.0mph /  8km/h 9.0mph /  14.5km/h 89% 0.15in /  3.81mm
08:14 48.1 °F /  8.9 °C 45.0 °F /  7.2 °C 29.43in /  996.5hPa South 5.0mph /  8km/h 9.0mph /  14.5km/h 89% 0.15in /  3.81mm
08:19 47.2 °F /  8.4 °C 44.4 °F /  6.9 °C 29.43in /  996.5hPa SSW 5.0mph /  8km/h 13.0mph /  20.9km/h 90% 0.15in /  3.81mm
08:24 47.0 °F /  8.3 °C 44.5 °F /  6.9 °C 29.41in /  995.8hPa SSW 5.0mph /  8km/h 9.0mph /  14.5km/h 91% 0.14in /  3.56mm
08:29 47.6 °F /  8.7 °C 45.4 °F /  7.4 °C 29.42in /  996.2hPa South 5.0mph /  8km/h 9.0mph /  14.5km/h 92% 0.14in /  3.56mm
08:34 47.9 °F /  8.8 °C 45.7 °F /  7.6 °C 29.42in /  996.2hPa SSW 5.0mph /  8km/h 9.0mph /  14.5km/h 92% 0.13in /  3.3mm
08:39 48.3 °F /  9.1 °C 46.1 °F /  7.8 °C 29.41in /  995.8hPa SSW 6.0mph /  9.7km/h 12.0mph /  19.3km/h 92% 0.10in /  2.54mm
08:44 49.1 °F /  9.5 °C 47.2 °F /  8.4 °C 29.40in /  995.5hPa SSW 5.0mph /  8km/h 12.0mph /  19.3km/h 93% 0.06in /  1.52mm
08:49 49.9 °F /  9.9 °C 48.0 °F /  8.9 °C 29.39in /  995.1hPa SSW 5.0mph /  8km/h 9.0mph /  14.5km/h 93% 0.03in /  0.76mm
08:54 50.5 °F /  10.3 °C 48.6 °F /  9.2 °C 29.38in /  994.8hPa SSW 4.0mph /  6.4km/h 11.0mph /  17.7km/h 93% 0.02in /  0.51mm
08:59 51.6 °F /  10.9 °C 49.6 °F /  9.8 °C 29.36in /  994.1hPa SSW 5.0mph /  8km/h 11.0mph /  17.7km/h 93% 0.01in /  0.25mm
09:04 52.2 °F /  11.2 °C 50.2 °F /  10.1 °C 29.35in /  993.8hPa South 7.0mph /  11.3km/h 10.0mph /  16.1km/h 93% 0.01in /  0.25mm
09:09 52.6 °F /  11.4 °C 50.6 °F /  10.3 °C 29.33in /  993.1hPa South 6.0mph /  9.7km/h 12.0mph /  19.3km/h 93% 0.00in /  0mm
09:14 52.9 °F /  11.6 °C 50.6 °F /  10.3 °C 29.34in /  993.5hPa SSE 6.0mph /  9.7km/h 13.0mph /  20.9km/h 92% 0.00in /  0mm
09:19 53.1 °F /  11.7 °C 50.8 °F /  10.4 °C 29.33in /  993.1hPa SSW 6.0mph /  9.7km/h 9.0mph /  14.5km/h 92% 0.00in /  0mm
09:24 53.4 °F /  11.9 °C 50.8 °F /  10.4 °C 29.34in /  993.5hPa SSE 5.0mph /  8km/h 14.0mph /  22.5km/h 91% 0.00in /  0mm
09:29 54.6 °F /  12.6 °C 51.7 °F /  10.9 °C 29.36in /  994.1hPa WSW 5.0mph /  8km/h 9.0mph /  14.5km/h 90% 0.00in /  0mm
09:34 55.2 °F /  12.9 °C 51.4 °F /  10.8 °C 29.36in /  994.1hPa SW 5.0mph /  8km/h 9.0mph /  14.5km/h 87% 0.00in /  0mm
09:39 56.0 °F /  13.3 °C 51.9 °F /  11.1 °C 29.36in /  994.1hPa SW 5.0mph /  8km/h 11.0mph /  17.7km/h 86% 0.00in /  0mm
09:44 56.7 °F /  13.7 °C 51.9 °F /  11.1 °C 29.36in /  994.1hPa SW 6.0mph /  9.7km/h 11.0mph /  17.7km/h 84% 0.00in /  0mm
09:49 57.6 °F /  14.2 °C 52.1 °F /  11.2 °C 29.36in /  994.1hPa SW 6.0mph /  9.7km/h 14.0mph /  22.5km/h 82% 0.00in /  0mm
09:54 57.9 °F /  14.4 °C 52.1 °F /  11.2 °C 29.36in /  994.1hPa SW 6.0mph /  9.7km/h 14.0mph /  22.5km/h 81% 0.00in /  0mm
09:59 58.7 °F /  14.8 °C 52.5 °F /  11.4 °C 29.37in /  994.5hPa SW 10.0mph /  16.1km/h 13.0mph /  20.9km/h 80% 0.00in /  0mm
10:04 58.6 °F /  14.8 °C 52.1 °F /  11.2 °C 29.36in /  994.1hPa SSW 6.0mph /  9.7km/h 17.0mph /  27.4km/h 79% 0.00in /  0mm
10:09 58.4 °F /  14.7 °C 51.9 °F /  11.1 °C 29.36in /  994.1hPa SW 7.0mph /  11.3km/h 17.0mph /  27.4km/h 79% 0.00in /  0mm
10:14 58.3 °F /  14.6 °C 51.5 °F /  10.8 °C 29.36in /  994.1hPa SW 7.0mph /  11.3km/h 16.0mph /  25.7km/h 78% 0.00in /  0mm
10:19 57.8 °F /  14.3 °C 51.0 °F /  10.6 °C 29.36in /  994.1hPa SW 8.0mph /  12.9km/h 13.0mph /  20.9km/h 78% 0.00in /  0mm
10:24 57.9 °F /  14.4 °C 51.4 °F /  10.8 °C 29.36in /  994.1hPa SW 7.0mph /  11.3km/h 15.0mph /  24.1km/h 79% 0.00in /  0mm
10:29 57.8 °F /  14.3 °C 51.3 °F /  10.7 °C 29.35in /  993.8hPa SW 7.0mph /  11.3km/h 15.0mph /  24.1km/h 79% 0.00in /  0mm
10:34 58.1 °F /  14.5 °C 51.3 °F /  10.7 °C 29.35in /  993.8hPa SW 7.0mph /  11.3km/h 15.0mph /  24.1km/h 78% 0.00in /  0mm
10:39 58.5 °F /  14.7 °C 51.3 °F /  10.7 °C 29.35in /  993.8hPa SW 7.0mph /  11.3km/h 15.0mph /  24.1km/h 77% 0.00in /  0mm
10:44 58.6 °F /  14.8 °C 51.4 °F /  10.8 °C 29.35in /  993.8hPa South 5.0mph /  8km/h 13.0mph /  20.9km/h 77% 0.00in /  0mm
10:49 59.0 °F /  15 °C 51.8 °F /  11 °C 29.35in /  993.8hPa West 5.0mph /  8km/h 13.0mph /  20.9km/h 77% 0.00in /  0mm
10:54 59.0 °F /  15 °C 51.8 °F /  11 °C 29.35in /  993.8hPa West 7.0mph /  11.3km/h 12.0mph /  19.3km/h 77% 0.00in /  0mm
10:59 58.4 °F /  14.7 °C 51.2 °F /  10.7 °C 29.35in /  993.8hPa SW 6.0mph /  9.7km/h 14.0mph /  22.5km/h 77% 0.00in /  0mm
11:04 58.0 °F /  14.4 °C 50.8 °F /  10.4 °C 29.35in /  993.8hPa WSW 12.0mph /  19.3km/h 13.0mph /  20.9km/h 77% 0.00in /  0mm
11:09 57.6 °F /  14.2 °C 50.8 °F /  10.4 °C 29.35in /  993.8hPa SW 13.0mph /  20.9km/h 17.0mph /  27.4km/h 78% 0.00in /  0mm
11:14 57.3 °F /  14.1 °C 49.8 °F /  9.9 °C 29.35in /  993.8hPa WSW 8.0mph /  12.9km/h 17.0mph /  27.4km/h 76% 0.00in /  0mm
11:19 57.4 °F /  14.1 °C 49.5 °F /  9.7 °C 29.36in /  994.1hPa SW 8.0mph /  12.9km/h 15.0mph /  24.1km/h 75% 0.00in /  0mm
11:24 57.5 °F /  14.2 °C 49.3 °F /  9.6 °C 29.36in /  994.1hPa WSW 8.0mph /  12.9km/h 19.0mph /  30.6km/h 74% 0.00in /  0mm
11:29 57.1 °F /  13.9 °C 48.9 °F /  9.4 °C 29.36in /  994.1hPa WSW 8.0mph /  12.9km/h 19.0mph /  30.6km/h 74% 0.00in /  0mm
11:34 56.9 °F /  13.8 °C 48.7 °F /  9.3 °C 29.36in /  994.1hPa WSW 7.0mph /  11.3km/h 14.0mph /  22.5km/h 74% 0.00in /  0mm
11:39 56.0 °F /  13.3 °C 47.8 °F /  8.8 °C 29.36in /  994.1hPa WSW 5.0mph /  8km/h 17.0mph /  27.4km/h 74% 0.00in /  0mm
11:44 55.3 °F /  12.9 °C 47.5 °F /  8.6 °C 29.36in /  994.1hPa WSW 8.0mph /  12.9km/h 17.0mph /  27.4km/h 75% 0.00in /  0mm
11:49 55.2 °F /  12.9 °C 47.4 °F /  8.6 °C 29.36in /  994.1hPa SW 6.0mph /  9.7km/h 13.0mph /  20.9km/h 75% 0.00in /  0mm
11:54 55.1 °F /  12.8 °C 47.3 °F /  8.5 °C 29.37in /  994.5hPa West 10.0mph /  16.1km/h 12.0mph /  19.3km/h 75% 0.00in /  0mm
11:59 54.4 °F /  12.4 °C 46.6 °F /  8.1 °C 29.37in /  994.5hPa SSW 8.0mph /  12.9km/h 17.0mph /  27.4km/h 75% 0.00in /  0mm
12:04 53.7 °F /  12.1 °C 46.3 °F /  7.9 °C 29.36in /  994.1hPa South 5.0mph /  8km/h 11.0mph /  17.7km/h 76% 0.00in /  0mm
12:09 53.6 °F /  12 °C 46.6 °F /  8.1 °C 29.35in /  993.8hPa WSW 4.0mph /  6.4km/h 12.0mph /  19.3km/h 77% 0.00in /  0mm
12:14 53.5 °F /  11.9 °C 46.5 °F /  8.1 °C 29.35in /  993.8hPa SW 7.0mph /  11.3km/h 13.0mph /  20.9km/h 77% 0.00in /  0mm
12:19 53.7 °F /  12.1 °C 46.7 °F /  8.2 °C 29.34in /  993.5hPa SW 6.0mph /  9.7km/h 13.0mph /  20.9km/h 77% 0.00in /  0mm
12:24 54.2 °F /  12.3 °C 46.8 °F /  8.2 °C 29.34in /  993.5hPa SW 6.0mph /  9.7km/h 13.0mph /  20.9km/h 76% 0.00in /  0mm
12:29 54.8 °F /  12.7 °C 47.0 °F /  8.3 °C 29.34in /  993.5hPa SW 7.0mph /  11.3km/h 14.0mph /  22.5km/h 75% 0.00in /  0mm
12:34 55.5 °F /  13.1 °C 47.7 °F /  8.7 °C 29.34in /  993.5hPa SW 7.0mph /  11.3km/h 15.0mph /  24.1km/h 75% 0.00in /  0mm
12:39 56.9 °F /  13.8 °C 48.3 °F /  9.1 °C 29.33in /  993.1hPa SW 8.0mph /  12.9km/h 21.0mph /  33.8km/h 73% 0.00in /  0mm
12:44 57.9 °F /  14.4 °C 48.9 °F /  9.4 °C 29.32in /  992.8hPa SW 8.0mph /  12.9km/h 21.0mph /  33.8km/h 72% 0.00in /  0mm
12:49 58.7 °F /  14.8 °C 48.9 °F /  9.4 °C 29.31in /  992.4hPa SSW 7.0mph /  11.3km/h 19.0mph /  30.6km/h 70% 0.00in /  0mm
12:54 59.2 °F /  15.1 °C 49.4 °F /  9.7 °C 29.30in /  992.1hPa WSW 9.0mph /  14.5km/h 17.0mph /  27.4km/h 70% 0.00in /  0mm
12:59 59.5 °F /  15.3 °C 49.3 °F /  9.6 °C 29.32in /  992.8hPa SW 9.0mph /  14.5km/h 16.0mph /  25.7km/h 69% 0.00in /  0mm
13:04 59.6 °F /  15.3 °C 49.4 °F /  9.7 °C 29.33in /  993.1hPa SW 10.0mph /  16.1km/h 16.0mph /  25.7km/h 69% 0.00in /  0mm
13:09 59.4 °F /  15.2 °C 49.2 °F /  9.6 °C 29.33in /  993.1hPa SW 6.0mph /  9.7km/h 18.0mph /  29km/h 69% 0.00in /  0mm
13:14 59.0 °F /  15 °C 48.8 °F /  9.3 °C 29.33in /  993.1hPa SW 10.0mph /  16.1km/h 20.0mph /  32.2km/h 69% 0.00in /  0mm
13:19 59.0 °F /  15 °C 48.8 °F /  9.3 °C 29.33in /  993.1hPa West 15.0mph /  24.1km/h 18.0mph /  29km/h 69% 0.00in /  0mm
13:24 59.0 °F /  15 °C 48.8 °F /  9.3 °C 29.33in /  993.1hPa SW 9.0mph /  14.5km/h 18.0mph /  29km/h 69% 0.00in /  0mm
13:29 58.8 °F /  14.9 °C 49.0 °F /  9.4 °C 29.33in /  993.1hPa SW 8.0mph /  12.9km/h 17.0mph /  27.4km/h 70% 0.00in /  0mm
13:34 58.4 °F /  14.7 °C 48.7 °F /  9.3 °C 29.33in /  993.1hPa SW 9.0mph /  14.5km/h 17.0mph /  27.4km/h 70% 0.00in /  0mm
13:39 58.2 °F /  14.6 °C 48.8 °F /  9.3 °C 29.33in /  993.1hPa SW 7.0mph /  11.3km/h 18.0mph /  29km/h 71% 0.00in /  0mm
13:44 57.8 °F /  14.3 °C 48.8 °F /  9.3 °C 29.33in /  993.1hPa WSW 5.0mph /  8km/h 15.0mph /  24.1km/h 72% 0.00in /  0mm
13:49 57.5 °F /  14.2 °C 48.9 °F /  9.4 °C 29.32in /  992.8hPa West 7.0mph /  11.3km/h 11.0mph /  17.7km/h 73% 0.00in /  0mm
13:54 57.7 °F /  14.3 °C 49.1 °F /  9.5 °C 29.32in /  992.8hPa WSW 7.0mph /  11.3km/h 13.0mph /  20.9km/h 73% 0.00in /  0mm
13:59 57.5 °F /  14.2 °C 48.9 °F /  9.4 °C 29.32in /  992.8hPa SW 8.0mph /  12.9km/h 21.0mph /  33.8km/h 73% 0.00in /  0mm
14:04 57.2 °F /  14 °C 49.0 °F /  9.4 °C 29.32in /  992.8hPa SW 9.0mph /  14.5km/h 21.0mph /  33.8km/h 74% 0.00in /  0mm
14:09 58.1 °F /  14.5 °C 49.9 °F /  9.9 °C 29.32in /  992.8hPa WSW 9.0mph /  14.5km/h 19.0mph /  30.6km/h 74% 0.00in /  0mm
14:14 58.4 °F /  14.7 °C 49.8 °F /  9.9 °C 29.32in /  992.8hPa SSW 8.0mph /  12.9km/h 16.0mph /  25.7km/h 73% 0.00in /  0mm
14:19 58.1 °F /  14.5 °C 49.5 °F /  9.7 °C 29.32in /  992.8hPa WSW 7.0mph /  11.3km/h 22.0mph /  35.4km/h 73% 0.00in /  0mm
14:24 58.0 °F /  14.4 °C 49.4 °F /  9.7 °C 29.32in /  992.8hPa SSW 21.0mph /  33.8km/h 21.0mph /  33.8km/h 73% 0.00in /  0mm
14:29 58.1 °F /  14.5 °C 49.5 °F /  9.7 °C 29.32in /  992.8hPa WSW 11.0mph /  17.7km/h 21.0mph /  33.8km/h 73% 0.00in /  0mm
14:34 57.3 °F /  14.1 °C 49.1 °F /  9.5 °C 29.32in /  992.8hPa WSW 11.0mph /  17.7km/h 21.0mph /  33.8km/h 74% 0.00in /  0mm
14:39 56.5 °F /  13.6 °C 48.7 °F /  9.3 °C 29.31in /  992.4hPa SSW 9.0mph /  14.5km/h 19.0mph /  30.6km/h 75% 0.00in /  0mm
14:44 55.7 °F /  13.2 °C 47.9 °F /  8.8 °C 29.31in /  992.4hPa SW 8.0mph /  12.9km/h 21.0mph /  33.8km/h 75% 0.00in /  0mm
14:49 55.2 °F /  12.9 °C 47.8 °F /  8.8 °C 29.31in /  992.4hPa SW 6.0mph /  9.7km/h 16.0mph /  25.7km/h 76% 0.00in /  0mm
14:54 54.7 °F /  12.6 °C 47.3 °F /  8.5 °C 29.31in /  992.4hPa WSW 14.0mph /  22.5km/h 18.0mph /  29km/h 76% 0.00in /  0mm
14:59 54.6 °F /  12.6 °C 47.2 °F /  8.4 °C 29.31in /  992.4hPa SW 11.0mph /  17.7km/h 18.0mph /  29km/h 76% 0.00in /  0mm
15:04 54.7 °F /  12.6 °C 47.3 °F /  8.5 °C 29.31in /  992.4hPa WSW 10.0mph /  16.1km/h 20.0mph /  32.2km/h 76% 0.00in /  0mm
15:09 54.9 °F /  12.7 °C 47.5 °F /  8.6 °C 29.31in /  992.4hPa SW 10.0mph /  16.1km/h 20.0mph /  32.2km/h 76% 0.00in /  0mm
15:14 55.5 °F /  13.1 °C 47.3 °F /  8.5 °C 29.31in /  992.4hPa SW 11.0mph /  17.7km/h 27.0mph /  43.5km/h 74% 0.00in /  0mm
15:19 56.1 °F /  13.4 °C 47.2 °F /  8.4 °C 29.31in /  992.4hPa WSW 13.0mph /  20.9km/h 29.0mph /  46.7km/h 72% 0.00in /  0mm
15:24 56.2 °F /  13.4 °C 46.9 °F /  8.3 °C 29.31in /  992.4hPa WSW 12.0mph /  19.3km/h 25.0mph /  40.2km/h 71% 0.00in /  0mm
15:29 56.2 °F /  13.4 °C 46.9 °F /  8.3 °C 29.31in /  992.4hPa WSW 16.0mph /  25.7km/h 27.0mph /  43.5km/h 71% 0.00in /  0mm
15:34 56.3 °F /  13.5 °C 47.0 °F /  8.3 °C 29.31in /  992.4hPa SW 18.0mph /  29km/h 29.0mph /  46.7km/h 71% 0.00in /  0mm
15:39 56.3 °F /  13.5 °C 47.4 °F /  8.6 °C 29.31in /  992.4hPa West 15.0mph /  24.1km/h 24.0mph /  38.6km/h 72% 0.00in /  0mm
15:44 56.4 °F /  13.6 °C 47.5 °F /  8.6 °C 29.30in /  992.1hPa West 15.0mph /  24.1km/h 24.0mph /  38.6km/h 72% 0.00in /  0mm
15:49 56.5 °F /  13.6 °C 47.2 °F /  8.4 °C 29.29in /  991.8hPa West 11.0mph /  17.7km/h 27.0mph /  43.5km/h 71% 0.00in /  0mm
15:54 56.7 °F /  13.7 °C 47.4 °F /  8.6 °C 29.29in /  991.8hPa WSW 11.0mph /  17.7km/h 23.0mph /  37km/h 71% 0.00in /  0mm
15:59 56.9 °F /  13.8 °C 47.6 °F /  8.7 °C 29.29in /  991.8hPa West 6.0mph /  9.7km/h 24.0mph /  38.6km/h 71% 0.00in /  0mm
16:04 56.7 °F /  13.7 °C 47.4 °F /  8.6 °C 29.29in /  991.8hPa WSW 12.0mph /  19.3km/h 24.0mph /  38.6km/h 71% 0.00in /  0mm
16:09 56.0 °F /  13.3 °C 47.1 °F /  8.4 °C 29.29in /  991.8hPa WSW 12.0mph /  19.3km/h 23.0mph /  37km/h 72% 0.00in /  0mm
16:14 55.7 °F /  13.2 °C 47.2 °F /  8.4 °C 29.30in /  992.1hPa WSW 12.0mph /  19.3km/h 22.0mph /  35.4km/h 73% 0.00in /  0mm
16:19 55.3 °F /  12.9 °C 47.2 °F /  8.4 °C 29.30in /  992.1hPa WSW 12.0mph /  19.3km/h 23.0mph /  37km/h 74% 0.00in /  0mm
16:24 55.1 °F /  12.8 °C 47.3 °F /  8.5 °C 29.30in /  992.1hPa WSW 12.0mph /  19.3km/h 26.0mph /  41.8km/h 75% 0.00in /  0mm
16:29 54.9 °F /  12.7 °C 47.1 °F /  8.4 °C 29.30in /  992.1hPa WSW 12.0mph /  19.3km/h 26.0mph /  41.8km/h 75% 0.00in /  0mm
16:34 54.9 °F /  12.7 °C 47.1 °F /  8.4 °C 29.29in /  991.8hPa West 10.0mph /  16.1km/h 25.0mph /  40.2km/h 75% 0.00in /  0mm
16:39 54.8 °F /  12.7 °C 47.0 °F /  8.3 °C 29.29in /  991.8hPa WSW 14.0mph /  22.5km/h 30.0mph /  48.3km/h 75% 0.00in /  0mm
16:44 54.1 °F /  12.3 °C 46.3 °F /  7.9 °C 29.29in /  991.8hPa WSW 14.0mph /  22.5km/h 30.0mph /  48.3km/h 75% 0.00in /  0mm
16:49 53.4 °F /  11.9 °C 46.0 °F /  7.8 °C 29.29in /  991.8hPa West 13.0mph /  20.9km/h 24.0mph /  38.6km/h 76% 0.00in /  0mm
16:54 52.9 °F /  11.6 °C 46.9 °F /  8.3 °C 29.30in /  992.1hPa WSW 16.0mph /  25.7km/h 22.0mph /  35.4km/h 80% 0.00in /  0mm
16:59 52.7 °F /  11.5 °C 47.4 °F /  8.6 °C 29.29in /  991.8hPa SW 8.0mph /  12.9km/h 20.0mph /  32.2km/h 82% 0.01in /  0.25mm
17:04 52.5 °F /  11.4 °C 47.2 °F /  8.4 °C 29.30in /  992.1hPa WSW 13.0mph /  20.9km/h 24.0mph /  38.6km/h 82% 0.01in /  0.25mm
17:09 52.3 °F /  11.3 °C 47.3 °F /  8.5 °C 29.30in /  992.1hPa West 14.0mph /  22.5km/h 25.0mph /  40.2km/h 83% 0.01in /  0.25mm
17:14 52.2 °F /  11.2 °C 46.9 °F /  8.3 °C 29.30in /  992.1hPa WSW 14.0mph /  22.5km/h 26.0mph /  41.8km/h 82% 0.01in /  0.25mm
17:19 52.2 °F /  11.2 °C 46.9 °F /  8.3 °C 29.29in /  991.8hPa SW 15.0mph /  24.1km/h 26.0mph /  41.8km/h 82% 0.01in /  0.25mm
17:24 52.1 °F /  11.2 °C 46.8 °F /  8.2 °C 29.29in /  991.8hPa SW 13.0mph /  20.9km/h 25.0mph /  40.2km/h 82% 0.01in /  0.25mm
17:29 52.1 °F /  11.2 °C 46.4 °F /  8 °C 29.30in /  992.1hPa WSW 13.0mph /  20.9km/h 30.0mph /  48.3km/h 81% 0.01in /  0.25mm
17:34 52.1 °F /  11.2 °C 46.4 °F /  8 °C 29.29in /  991.8hPa WSW 14.0mph /  22.5km/h 30.0mph /  48.3km/h 81% 0.01in /  0.25mm
17:39 52.1 °F /  11.2 °C 46.1 °F /  7.8 °C 29.30in /  992.1hPa WSW 14.0mph /  22.5km/h 27.0mph /  43.5km/h 80% 0.01in /  0.25mm
17:44 52.1 °F /  11.2 °C 45.8 °F /  7.7 °C 29.30in /  992.1hPa WSW 11.0mph /  17.7km/h 26.0mph /  41.8km/h 79% 0.01in /  0.25mm
17:49 52.0 °F /  11.1 °C 45.7 °F /  7.6 °C 29.30in /  992.1hPa WSW 15.0mph /  24.1km/h 32.0mph /  51.5km/h 79% 0.01in /  0.25mm
17:54 51.4 °F /  10.8 °C 45.1 °F /  7.3 °C 29.30in /  992.1hPa West 6.0mph /  9.7km/h 26.0mph /  41.8km/h 79% 0.01in /  0.25mm
17:59 51.0 °F /  10.6 °C 45.0 °F /  7.2 °C 29.30in /  992.1hPa WSW 8.0mph /  12.9km/h 22.0mph /  35.4km/h 80% 0.00in /  0mm
18:04 51.1 °F /  10.6 °C 44.8 °F /  7.1 °C 29.31in /  992.4hPa SW 14.0mph /  22.5km/h 27.0mph /  43.5km/h 79% 0.00in /  0mm
18:09 50.7 °F /  10.4 °C 44.4 °F /  6.9 °C 29.31in /  992.4hPa West 16.0mph /  25.7km/h 36.0mph /  57.9km/h 79% 0.00in /  0mm
18:14 50.2 °F /  10.1 °C 44.3 °F /  6.8 °C 29.31in /  992.4hPa West 22.0mph /  35.4km/h 34.0mph /  54.7km/h 80% 0.00in /  0mm
18:19 49.8 °F /  9.9 °C 43.9 °F /  6.6 °C 29.31in /  992.4hPa SW 15.0mph /  24.1km/h 34.0mph /  54.7km/h 80% 0.00in /  0mm
18:24 49.3 °F /  9.6 °C 43.4 °F /  6.3 °C 29.32in /  992.8hPa SW 17.0mph /  27.4km/h 33.0mph /  53.1km/h 80% 0.00in /  0mm
18:29 48.8 °F /  9.3 °C 42.9 °F /  6.1 °C 29.32in /  992.8hPa SW 17.0mph /  27.4km/h 35.0mph /  56.3km/h 80% 0.00in /  0mm
18:34 48.4 °F /  9.1 °C 42.5 °F /  5.8 °C 29.32in /  992.8hPa SW 16.0mph /  25.7km/h 35.0mph /  56.3km/h 80% 0.00in /  0mm
18:39 47.8 °F /  8.8 °C 41.9 °F /  5.5 °C 29.32in /  992.8hPa SW 16.0mph /  25.7km/h 30.0mph /  48.3km/h 80% 0.00in /  0mm
18:44 47.4 °F /  8.6 °C 41.9 °F /  5.5 °C 29.33in /  993.1hPa WSW 14.0mph /  22.5km/h 27.0mph /  43.5km/h 81% 0.00in /  0mm
18:49 47.3 °F /  8.5 °C 41.8 °F /  5.4 °C 29.33in /  993.1hPa WSW 14.0mph /  22.5km/h 27.0mph /  43.5km/h 81% 0.00in /  0mm
18:54 47.1 °F /  8.4 °C 41.2 °F /  5.1 °C 29.34in /  993.5hPa SSW 13.0mph /  20.9km/h 31.0mph /  49.9km/h 80% 0.00in /  0mm
18:59 46.6 °F /  8.1 °C 41.1 °F /  5.1 °C 29.34in /  993.5hPa WSW 12.0mph /  19.3km/h 33.0mph /  53.1km/h 81% 0.00in /  0mm
19:04 46.0 °F /  7.8 °C 40.5 °F /  4.7 °C 29.33in /  993.1hPa WSW 16.0mph /  25.7km/h 34.0mph /  54.7km/h 81% 0.00in /  0mm
19:09 45.5 °F /  7.5 °C 40.0 °F /  4.4 °C 29.34in /  993.5hPa WSW 13.0mph /  20.9km/h 27.0mph /  43.5km/h 81% 0.00in /  0mm
19:14 45.0 °F /  7.2 °C 39.5 °F /  4.2 °C 29.35in /  993.8hPa SSW 16.0mph /  25.7km/h 31.0mph /  49.9km/h 81% 0.00in /  0mm
19:19 44.6 °F /  7 °C 38.8 °F /  3.8 °C 29.35in /  993.8hPa SW 9.0mph /  14.5km/h 37.0mph /  59.5km/h 80% 0.00in /  0mm
19:24 44.2 °F /  6.8 °C 38.7 °F /  3.7 °C 29.35in /  993.8hPa WSW 16.0mph /  25.7km/h 37.0mph /  59.5km/h 81% 0.00in /  0mm
19:29 43.8 °F /  6.6 °C 38.3 °F /  3.5 °C 29.36in /  994.1hPa WSW 15.0mph /  24.1km/h 30.0mph /  48.3km/h 81% 0.00in /  0mm
19:34 43.6 °F /  6.4 °C 38.2 °F /  3.4 °C 29.37in /  994.5hPa WSW 15.0mph /  24.1km/h 27.0mph /  43.5km/h 81% 0.00in /  0mm
19:39 43.3 °F /  6.3 °C 37.9 °F /  3.3 °C 29.37in /  994.5hPa WSW 16.0mph /  25.7km/h 26.0mph /  41.8km/h 81% 0.00in /  0mm
19:44 43.1 °F /  6.2 °C 37.7 °F /  3.2 °C 29.38in /  994.8hPa WSW 16.0mph /  25.7km/h 25.0mph /  40.2km/h 81% 0.00in /  0mm
19:49 42.8 °F /  6 °C 37.4 °F /  3 °C 29.38in /  994.8hPa SW 15.0mph /  24.1km/h 27.0mph /  43.5km/h 81% 0.00in /  0mm
19:54 42.7 °F /  5.9 °C 37.3 °F /  2.9 °C 29.39in /  995.1hPa SW 16.0mph /  25.7km/h 27.0mph /  43.5km/h 81% 0.00in /  0mm
19:59 42.5 °F /  5.8 °C 37.1 °F /  2.8 °C 29.39in /  995.1hPa SW 15.0mph /  24.1km/h 26.0mph /  41.8km/h 81% 0.00in /  0mm
20:04 42.1 °F /  5.6 °C 36.7 °F /  2.6 °C 29.39in /  995.1hPa SW 15.0mph /  24.1km/h 28.0mph /  45.1km/h 81% 0.00in /  0mm
20:09 41.9 °F /  5.5 °C 36.5 °F /  2.5 °C 29.40in /  995.5hPa SW 20.0mph /  32.2km/h 25.0mph /  40.2km/h 81% 0.00in /  0mm
20:14 41.8 °F /  5.4 °C 36.7 °F /  2.6 °C 29.40in /  995.5hPa SW 22.0mph /  35.4km/h 24.0mph /  38.6km/h 82% 0.00in /  0mm
20:19 41.8 °F /  5.4 °C 36.7 °F /  2.6 °C 29.40in /  995.5hPa SW 17.0mph /  27.4km/h 24.0mph /  38.6km/h 82% 0.00in /  0mm
20:24 41.7 °F /  5.4 °C 36.3 °F /  2.4 °C 29.41in /  995.8hPa WSW 14.0mph /  22.5km/h 28.0mph /  45.1km/h 81% 0.00in /  0mm
20:29 41.5 °F /  5.3 °C 36.1 °F /  2.3 °C 29.41in /  995.8hPa SW 14.0mph /  22.5km/h 28.0mph /  45.1km/h 81% 0.00in /  0mm
20:34 41.4 °F /  5.2 °C 36.0 °F /  2.2 °C 29.41in /  995.8hPa SW 13.0mph /  20.9km/h 26.0mph /  41.8km/h 81% 0.00in /  0mm
20:39 41.4 °F /  5.2 °C 36.0 °F /  2.2 °C 29.41in /  995.8hPa SW 22.0mph /  35.4km/h 29.0mph /  46.7km/h 81% 0.00in /  0mm
20:44 41.3 °F /  5.2 °C 35.6 °F /  2 °C 29.41in /  995.8hPa SSW 10.0mph /  16.1km/h 29.0mph /  46.7km/h 80% 0.00in /  0mm
20:49 41.4 °F /  5.2 °C 35.4 °F /  1.9 °C 29.41in /  995.8hPa SW 19.0mph /  30.6km/h 38.0mph /  61.2km/h 79% 0.00in /  0mm
20:54 41.5 °F /  5.3 °C 35.5 °F /  1.9 °C 29.41in /  995.8hPa SSE 10.0mph /  16.1km/h 28.0mph /  45.1km/h 79% 0.00in /  0mm
20:59 41.5 °F /  5.3 °C 35.2 °F /  1.8 °C 29.42in /  996.2hPa WSW 17.0mph /  27.4km/h 28.0mph /  45.1km/h 78% 0.00in /  0mm
21:04 41.4 °F /  5.2 °C 35.1 °F /  1.7 °C 29.42in /  996.2hPa WSW 16.0mph /  25.7km/h 33.0mph /  53.1km/h 78% 0.00in /  0mm
21:09 41.2 °F /  5.1 °C 34.9 °F /  1.6 °C 29.43in /  996.5hPa WSW 16.0mph /  25.7km/h 33.0mph /  53.1km/h 78% 0.00in /  0mm
21:14 41.0 °F /  5 °C 35.0 °F /  1.7 °C 29.43in /  996.5hPa WSW 15.0mph /  24.1km/h 28.0mph /  45.1km/h 79% 0.00in /  0mm
21:19 40.7 °F /  4.8 °C 34.7 °F /  1.5 °C 29.43in /  996.5hPa WSW 14.0mph /  22.5km/h 28.0mph /  45.1km/h 79% 0.00in /  0mm
21:24 40.6 °F /  4.8 °C 34.9 °F /  1.6 °C 29.43in /  996.5hPa SW 14.0mph /  22.5km/h 27.0mph /  43.5km/h 80% 0.00in /  0mm
21:29 40.4 °F /  4.7 °C 34.7 °F /  1.5 °C 29.43in /  996.5hPa WSW 15.0mph /  24.1km/h 28.0mph /  45.1km/h 80% 0.00in /  0mm
21:34 40.1 °F /  4.5 °C 34.4 °F /  1.3 °C 29.44in /  996.8hPa WNW 14.0mph /  22.5km/h 19.0mph /  30.6km/h 80% 0.00in /  0mm
21:39 39.8 °F /  4.3 °C 34.1 °F /  1.2 °C 29.44in /  996.8hPa SW 9.0mph /  14.5km/h 28.0mph /  45.1km/h 80% 0.00in /  0mm
21:44 39.6 °F /  4.2 °C 33.9 °F /  1.1 °C 29.43in /  996.5hPa SW 22.0mph /  35.4km/h 29.0mph /  46.7km/h 80% 0.00in /  0mm
21:49 39.4 °F /  4.1 °C 33.7 °F /  0.9 °C 29.43in /  996.5hPa WSW 15.0mph /  24.1km/h 29.0mph /  46.7km/h 80% 0.00in /  0mm
21:54 39.2 °F /  4 °C 33.5 °F /  0.8 °C 29.44in /  996.8hPa SW 14.0mph /  22.5km/h 23.0mph /  37km/h 80% 0.00in /  0mm
21:59 39.0 °F /  3.9 °C 33.7 °F /  0.9 °C 29.44in /  996.8hPa SW 12.0mph /  19.3km/h 23.0mph /  37km/h 81% 0.00in /  0mm
22:04 38.8 °F /  3.8 °C 33.5 °F /  0.8 °C 29.44in /  996.8hPa SW 12.0mph /  19.3km/h 26.0mph /  41.8km/h 81% 0.00in /  0mm
22:09 38.8 °F /  3.8 °C 33.5 °F /  0.8 °C 29.44in /  996.8hPa WSW 12.0mph /  19.3km/h 26.0mph /  41.8km/h 81% 0.00in /  0mm
22:14 38.6 °F /  3.7 °C 33.3 °F /  0.7 °C 29.44in /  996.8hPa WSW 13.0mph /  20.9km/h 24.0mph /  38.6km/h 81% 0.00in /  0mm
22:19 38.6 °F /  3.7 °C 33.3 °F /  0.7 °C 29.44in /  996.8hPa WSW 13.0mph /  20.9km/h 24.0mph /  38.6km/h 81% 0.00in /  0mm
22:24 38.6 °F /  3.7 °C 33.3 °F /  0.7 °C 29.44in /  996.8hPa WSW 12.0mph /  19.3km/h 23.0mph /  37km/h 81% 0.00in /  0mm
22:29 38.6 °F /  3.7 °C 33.3 °F /  0.7 °C 29.44in /  996.8hPa SW 22.0mph /  35.4km/h 26.0mph /  41.8km/h 81% 0.00in /  0mm
22:34 38.5 °F /  3.6 °C 32.9 °F /  0.5 °C 29.45in /  997.2hPa WSW 13.0mph /  20.9km/h 29.0mph /  46.7km/h 80% 0.00in /  0mm
22:39 38.5 °F /  3.6 °C 32.9 °F /  0.5 °C 29.45in /  997.2hPa SSW 9.0mph /  14.5km/h 23.0mph /  37km/h 80% 0.00in /  0mm
22:44 38.4 °F /  3.6 °C 32.8 °F /  0.4 °C 29.45in /  997.2hPa SW 11.0mph /  17.7km/h 24.0mph /  38.6km/h 80% 0.00in /  0mm
22:49 38.3 °F /  3.5 °C 32.7 °F /  0.4 °C 29.45in /  997.2hPa WSW 11.0mph /  17.7km/h 26.0mph /  41.8km/h 80% 0.00in /  0mm
22:54 38.2 °F /  3.4 °C 32.6 °F /  0.3 °C 29.45in /  997.2hPa WSW 15.0mph /  24.1km/h 27.0mph /  43.5km/h 80% 0.00in /  0mm
22:59 38.1 °F /  3.4 °C 32.2 °F /  0.1 °C 29.45in /  997.2hPa SSW 15.0mph /  24.1km/h 29.0mph /  46.7km/h 79% 0.00in /  0mm
23:04 38.1 °F /  3.4 °C 32.2 °F /  0.1 °C 29.46in /  997.5hPa SW 14.0mph /  22.5km/h 29.0mph /  46.7km/h 79% 0.00in /  0mm
23:09 38.0 °F /  3.3 °C 32.1 °F /  0.1 °C 29.46in /  997.5hPa WSW 15.0mph /  24.1km/h 28.0mph /  45.1km/h 79% 0.00in /  0mm
23:14 38.0 °F /  3.3 °C 32.1 °F /  0.1 °C 29.47in /  997.9hPa West 8.0mph /  12.9km/h 22.0mph /  35.4km/h 79% 0.00in /  0mm
23:19 37.9 °F /  3.3 °C 32.0 °F /  0 °C 29.46in /  997.5hPa WSW 14.0mph /  22.5km/h 24.0mph /  38.6km/h 79% 0.00in /  0mm
23:24 37.8 °F /  3.2 °C 31.9 °F /  -0.1 °C 29.47in /  997.9hPa WSW 8.0mph /  12.9km/h 22.0mph /  35.4km/h 79% 0.00in /  0mm
23:29 37.7 °F /  3.2 °C 31.8 °F /  -0.1 °C 29.47in /  997.9hPa SW 8.0mph /  12.9km/h 24.0mph /  38.6km/h 79% 0.00in /  0mm
23:34 37.5 °F /  3.1 °C 31.6 °F /  -0.2 °C 29.47in /  997.9hPa West 12.0mph /  19.3km/h 27.0mph /  43.5km/h 79% 0.00in /  0mm
23:39 37.4 °F /  3 °C 31.2 °F /  -0.4 °C 29.48in /  998.2hPa WSW 13.0mph /  20.9km/h 27.0mph /  43.5km/h 78% 0.00in /  0mm
23:44 37.2 °F /  2.9 °C 30.3 °F /  -0.9 °C 29.49in /  998.5hPa WSW 12.0mph /  19.3km/h 25.0mph /  40.2km/h 76% 0.00in /  0mm
23:49 36.9 °F /  2.7 °C 29.7 °F /  -1.3 °C 29.49in /  998.5hPa WSW 12.0mph /  19.3km/h 26.0mph /  41.8km/h 75% 0.00in /  0mm
23:54 36.5 °F /  2.5 °C 29.0 °F /  -1.7 °C 29.49in /  998.5hPa West 9.0mph /  14.5km/h 30.0mph /  48.3km/h 74% 0.00in /  0mm
23:59 36.2 °F /  2.3 °C 28.7 °F /  -1.8 °C 29.50in /  998.9hPa WSW 12.0mph /  19.3km/h 25.0mph /  40.2km/h 74% 0.00in /  0mm
Buffalo, New York, USA
Compliments of Weather Underground - 2.5 mb